Time;durP1;ratioP1;P1;durP2;ratioP2;P2;SDS_P1;SDS_P2;PMS_P1;PMS_P2;Temp;Humidity;BMP_temperature;BMP_pressure;BME280_temperature;BME280_humidity;BME280_pressure;Samples;Min_cycle;Max_cycle;Signal;HPM_P1;HPM_P2
2020/12/20 00:00:08;;;;;;;8.60;6.10;;;5.50;99.90;;;;;;5009895;28;20210;-75
2020/12/20 00:02:35;;;;;;;8.80;6.53;;;5.50;99.90;;;;;;5012003;28;20230;-74
2020/12/20 00:05:01;;;;;;;8.20;6.78;;;5.50;99.90;;;;;;5012434;28;20206;-75
2020/12/20 00:07:27;;;;;;;7.55;5.72;;;5.50;99.90;;;;;;5012345;28;20277;-75
2020/12/20 00:09:54;;;;;;;6.10;5.50;;;5.60;99.90;;;;;;5011352;28;20600;-75
2020/12/20 00:12:20;;;;;;;7.28;6.03;;;5.60;99.90;;;;;;5011670;28;20206;-75
2020/12/20 00:14:47;;;;;;;11.30;6.28;;;5.60;99.90;;;;;;5012293;28;20210;-75
2020/12/20 00:17:13;;;;;;;6.90;5.80;;;5.50;99.90;;;;;;5012143;28;20210;-75
2020/12/20 00:19:39;;;;;;;8.25;6.32;;;5.50;99.90;;;;;;5011764;28;20586;-75
2020/12/20 00:22:07;;;;;;;6.97;5.68;;;5.50;99.90;;;;;;5011343;28;20202;-75
2020/12/20 00:24:34;;;;;;;6.68;6.00;;;5.50;99.90;;;;;;5011843;28;20214;-75
2020/12/20 00:27:02;;;;;;;6.65;5.68;;;5.50;99.90;;;;;;5011889;28;20206;-76
2020/12/20 00:29:29;;;;;;;6.82;5.95;;;5.50;99.90;;;;;;5011144;28;20584;-76
2020/12/20 00:31:56;;;;;;;6.53;5.88;;;5.50;99.90;;;;;;5011799;28;20234;-76
2020/12/20 00:34:22;;;;;;;8.02;6.00;;;5.50;99.90;;;;;;5011777;28;20218;-76
2020/12/20 00:36:49;;;;;;;7.53;5.88;;;5.50;99.90;;;;;;5011787;28;20214;-76
2020/12/20 00:39:17;;;;;;;7.30;6.47;;;5.50;99.90;;;;;;5011443;28;20559;-76
2020/12/20 00:41:49;;;;;;;6.57;5.88;;;5.50;99.90;;;;;;5011098;28;20211;-76
2020/12/20 00:44:16;;;;;;;7.25;6.50;;;5.50;99.90;;;;;;5011566;28;20225;-76
2020/12/20 00:46:43;;;;;;;6.93;6.20;;;5.50;99.90;;;;;;5011467;28;20210;-77
2020/12/20 00:49:09;;;;;;;7.25;6.53;;;5.50;99.90;;;;;;5011390;28;20218;-76
2020/12/20 00:51:35;;;;;;;6.68;6.03;;;5.50;99.90;;;;;;5010454;28;20206;-76
2020/12/20 00:54:02;;;;;;;8.52;5.65;;;5.50;99.90;;;;;;5011306;28;20222;-76
2020/12/20 00:56:28;;;;;;;8.32;6.47;;;5.50;99.90;;;;;;5011306;28;20210;-76
2020/12/20 00:58:55;;;;;;;6.97;6.28;;;5.50;99.90;;;;;;5010533;28;20700;-76
2020/12/20 01:01:22;;;;;;;7.55;6.03;;;5.50;99.90;;;;;;5011049;28;20203;-76
2020/12/20 01:03:48;;;;;;;8.18;6.28;;;5.50;99.90;;;;;;5010752;28;20226;-76
2020/12/20 01:06:18;;;;;;;9.07;6.88;;;5.50;99.90;;;;;;5011265;28;20210;-76
2020/12/20 01:08:44;;;;;;;7.32;6.18;;;5.50;99.90;;;;;;5010372;28;20214;-76
2020/12/20 01:11:11;;;;;;;7.05;6.10;;;5.60;99.90;;;;;;5010802;28;20209;-75
2020/12/20 01:13:37;;;;;;;7.57;5.72;;;5.50;99.90;;;;;;5010392;28;20226;-75
2020/12/20 01:16:04;;;;;;;8.85;6.00;;;5.50;99.90;;;;;;5010656;28;20203;-75
2020/12/20 01:18:32;;;;;;;6.68;5.60;;;5.50;99.90;;;;;;5010840;28;20542;-74
2020/12/20 01:20:58;;;;;;;7.03;6.32;;;5.50;99.90;;;;;;5011009;28;20790;-76
2020/12/20 01:23:24;;;;;;;6.30;5.70;;;5.50;99.90;;;;;;5010241;28;20226;-77
2020/12/20 01:25:50;;;;;;;7.65;6.88;;;5.50;99.90;;;;;;5011101;28;20225;-74
2020/12/20 01:28:16;;;;;;;7.55;6.72;;;5.50;99.90;;;;;;5009184;28;20207;-74
2020/12/20 01:30:42;;;;;;;6.45;5.85;;;5.50;99.90;;;;;;5010523;28;20222;-74
2020/12/20 01:33:09;;;;;;;7.38;6.65;;;5.50;99.90;;;;;;5010007;28;20269;-75
2020/12/20 01:35:36;;;;;;;6.50;5.55;;;5.40;99.90;;;;;;5010420;28;20214;-74
2020/12/20 01:38:02;;;;;;;7.35;6.43;;;5.40;99.90;;;;;;5010636;28;20205;-77
2020/12/20 01:40:28;;;;;;;7.80;5.75;;;5.40;99.90;;;;;;5010047;28;20195;-75
2020/12/20 01:42:55;;;;;;;7.72;6.10;;;5.40;99.90;;;;;;5010322;28;20233;-76
2020/12/20 01:45:22;;;;;;;8.30;6.00;;;5.40;99.90;;;;;;5010263;28;20234;-76
2020/12/20 01:47:48;;;;;;;7.65;6.50;;;5.40;99.90;;;;;;5010399;28;20578;-76
2020/12/20 01:50:15;;;;;;;7.35;6.05;;;5.40;99.90;;;;;;5009820;28;20242;-77
2020/12/20 01:52:43;;;;;;;6.85;6.07;;;5.50;99.90;;;;;;5009475;28;20230;-76
2020/12/20 01:55:09;;;;;;;9.82;6.53;;;5.50;99.90;;;;;;5010514;28;20206;-76
2020/12/20 01:57:35;;;;;;;7.68;6.55;;;5.50;99.90;;;;;;5010203;28;20214;-76
2020/12/20 02:00:03;;;;;;;7.45;6.70;;;5.60;99.90;;;;;;5009745;28;20245;-77
2020/12/20 02:02:29;;;;;;;8.88;7.07;;;5.60;99.90;;;;;;5009643;28;20228;-77
2020/12/20 02:04:56;;;;;;;7.93;6.60;;;5.60;99.90;;;;;;5010337;28;20221;-76
2020/12/20 02:07:23;;;;;;;7.57;6.70;;;5.60;99.90;;;;;;5010053;28;20204;-76
2020/12/20 02:09:50;;;;;;;7.60;6.80;;;5.60;99.90;;;;;;5009879;28;20218;-76
2020/12/20 02:12:16;;;;;;;11.25;7.40;;;5.60;99.90;;;;;;5009463;28;20221;-76
2020/12/20 02:14:43;;;;;;;8.98;6.18;;;5.60;99.90;;;;;;5009730;28;20311;-75
2020/12/20 02:17:09;;;;;;;7.88;6.22;;;5.60;99.90;;;;;;5007773;28;20685;-75
2020/12/20 02:19:35;;;;;;;8.90;6.32;;;5.60;99.90;;;;;;5009144;28;20203;-75
2020/12/20 02:22:02;;;;;;;8.43;6.60;;;5.60;99.90;;;;;;5009547;28;20214;-75
2020/12/20 02:24:29;;;;;;;9.50;6.60;;;5.60;99.90;;;;;;5010044;28;20219;-76
2020/12/20 02:26:55;;;;;;;6.38;5.78;;;5.60;99.90;;;;;;5010606;28;20245;-76
2020/12/20 02:29:21;;;;;;;8.82;6.90;;;5.60;99.90;;;;;;5009583;28;20219;-76
2020/12/20 02:31:47;;;;;;;9.27;7.57;;;5.60;99.90;;;;;;5010333;28;20669;-76
2020/12/20 02:34:14;;;;;;;12.93;8.30;;;5.60;99.90;;;;;;5010273;28;20734;-76
2020/12/20 02:36:40;;;;;;;7.80;6.50;;;5.60;99.90;;;;;;5009516;28;20210;-75
2020/12/20 02:39:08;;;;;;;9.60;6.68;;;5.60;99.90;;;;;;5009132;28;20213;-75
2020/12/20 02:41:34;;;;;;;12.95;7.55;;;5.70;99.90;;;;;;5008483;28;20378;-75
2020/12/20 02:44:00;;;;;;;12.57;7.53;;;5.70;99.90;;;;;;5009321;28;20273;-75
2020/12/20 02:46:27;;;;;;;8.43;7.22;;;5.70;99.90;;;;;;5009028;28;20210;-75
2020/12/20 02:48:53;;;;;;;7.88;6.80;;;5.70;99.90;;;;;;5009576;28;20198;-75
2020/12/20 02:51:19;;;;;;;6.40;5.80;;;5.80;99.90;;;;;;5008920;28;20209;-75
2020/12/20 02:53:46;;;;;;;7.13;6.43;;;5.80;99.90;;;;;;5008392;28;20592;-75
2020/12/20 02:56:13;;;;;;;7.80;5.60;;;5.70;99.90;;;;;;5008945;28;20199;-75
2020/12/20 02:58:39;;;;;;;8.60;6.25;;;5.80;99.90;;;;;;5009080;28;20205;-76
2020/12/20 03:01:06;;;;;;;7.72;5.63;;;5.70;99.90;;;;;;5009233;28;20214;-77
2020/12/20 03:03:32;;;;;;;7.25;6.03;;;5.80;99.90;;;;;;5008290;28;20222;-77
2020/12/20 03:05:58;;;;;;;7.30;6.55;;;5.80;99.90;;;;;;5008892;28;20678;-76
2020/12/20 03:08:24;;;;;;;6.78;6.07;;;5.80;99.90;;;;;;5010042;28;20202;-77
2020/12/20 03:10:51;;;;;;;7.07;6.35;;;5.80;99.90;;;;;;5009303;28;20225;-76
2020/12/20 03:13:18;;;;;;;7.50;6.40;;;5.80;99.90;;;;;;5008271;28;20640;-76
2020/12/20 03:15:44;;;;;;;7.22;6.50;;;5.80;99.90;;;;;;5008849;28;20264;-76
2020/12/20 03:18:10;;;;;;;8.70;6.82;;;5.80;99.90;;;;;;5008469;28;20293;-76
2020/12/20 03:20:37;;;;;;;6.95;5.97;;;5.80;99.90;;;;;;5008737;28;20198;-76
2020/12/20 03:23:04;;;;;;;6.18;5.57;;;5.80;99.90;;;;;;5008581;28;20222;-77
2020/12/20 03:25:30;;;;;;;8.00;6.28;;;5.80;99.90;;;;;;5008778;28;20253;-76
2020/12/20 03:27:56;;;;;;;8.70;6.55;;;5.80;99.90;;;;;;5008971;28;20210;-76
2020/12/20 03:30:24;;;;;;;7.85;7.05;;;5.80;99.90;;;;;;5007964;28;20218;-77
2020/12/20 03:32:50;;;;;;;6.85;5.78;;;5.80;99.90;;;;;;5009739;28;20713;-76
2020/12/20 03:35:16;;;;;;;8.13;6.78;;;5.80;99.90;;;;;;5012850;28;20209;-76
2020/12/20 03:37:49;;;;;;;7.43;6.70;;;5.80;99.90;;;;;;5012849;28;20202;-76
2020/12/20 03:40:16;;;;;;;7.28;6.57;;;5.70;99.90;;;;;;5012849;28;20209;-77
2020/12/20 03:42:42;;;;;;;6.80;6.18;;;5.70;99.90;;;;;;5011534;28;20230;-76
2020/12/20 03:45:09;;;;;;;7.57;6.57;;;5.70;99.90;;;;;;5012808;28;20210;-77
2020/12/20 03:47:36;;;;;;;7.15;6.45;;;5.70;99.90;;;;;;5012333;28;20210;-76
2020/12/20 03:50:03;;;;;;;7.00;6.30;;;5.70;99.90;;;;;;5012686;28;20226;-76
2020/12/20 03:52:29;;;;;;;9.70;6.55;;;5.60;99.90;;;;;;5011482;28;20233;-77
2020/12/20 03:54:55;;;;;;;6.22;5.63;;;5.60;99.90;;;;;;5012131;28;20206;-76
2020/12/20 03:57:21;;;;;;;6.80;6.05;;;5.60;99.90;;;;;;5012071;28;20209;-76
2020/12/20 03:59:47;;;;;;;6.70;6.00;;;5.60;99.90;;;;;;5012175;28;20210;-76
2020/12/20 04:02:14;;;;;;;8.15;6.55;;;5.50;99.90;;;;;;5011788;28;20210;-76
2020/12/20 04:04:41;;;;;;;7.47;6.00;;;5.50;99.90;;;;;;5011837;28;20202;-76
2020/12/20 04:07:07;;;;;;;6.70;6.00;;;5.50;99.90;;;;;;5011966;28;21059;-76
2020/12/20 04:09:33;;;;;;;7.18;6.47;;;5.50;99.90;;;;;;5011520;28;20222;-76
2020/12/20 04:12:00;;;;;;;7.32;6.45;;;5.50;99.90;;;;;;5011591;28;20213;-76
2020/12/20 04:14:26;;;;;;;5.95;5.40;;;5.50;99.90;;;;;;5011563;28;20222;-76
2020/12/20 04:16:52;;;;;;;8.45;6.25;;;5.50;99.90;;;;;;5012210;28;20247;-76
2020/12/20 04:19:19;;;;;;;7.43;6.13;;;5.50;99.90;;;;;;5011668;28;20628;-76
2020/12/20 04:21:46;;;;;;;6.57;5.88;;;5.50;99.90;;;;;;5011004;28;20217;-76
2020/12/20 04:24:12;;;;;;;6.18;5.57;;;5.50;99.90;;;;;;5011875;28;20234;-76
2020/12/20 04:26:38;;;;;;;6.63;5.93;;;5.50;99.90;;;;;;5011436;28;20559;-76
2020/12/20 04:29:04;;;;;;;6.90;6.20;;;5.50;99.90;;;;;;5011632;28;20214;-76
2020/12/20 04:31:31;;;;;;;6.30;5.70;;;5.40;99.90;;;;;;5011192;28;20206;-76
2020/12/20 04:33:57;;;;;;;6.88;6.15;;;5.40;99.90;;;;;;5011007;28;20292;-76
2020/12/20 04:36:23;;;;;;;6.30;5.70;;;5.40;99.90;;;;;;5011255;28;20210;-76
2020/12/20 04:38:50;;;;;;;7.63;6.25;;;5.40;99.90;;;;;;5011698;28;20210;-76
2020/12/20 04:41:22;;;;;;;7.55;5.93;;;5.40;99.90;;;;;;5011164;28;20210;-76
2020/12/20 04:43:49;;;;;;;7.93;6.28;;;5.40;99.90;;;;;;5010935;28;20230;-76
2020/12/20 04:46:17;;;;;;;6.25;5.65;;;5.40;99.90;;;;;;5011288;28;20210;-76
2020/12/20 04:48:44;;;;;;;7.00;6.28;;;5.30;99.90;;;;;;5010747;28;20220;-76
2020/12/20 04:51:11;;;;;;;6.60;6.00;;;5.30;99.90;;;;;;5011414;28;20218;-76
2020/12/20 04:53:38;;;;;;;8.38;6.93;;;5.30;99.90;;;;;;5010062;28;20230;-76
2020/12/20 04:56:06;;;;;;;7.80;6.00;;;5.30;99.90;;;;;;5011143;28;20210;-76
2020/12/20 04:58:33;;;;;;;8.32;6.40;;;5.30;99.90;;;;;;5010425;28;20202;-76
2020/12/20 05:00:59;;;;;;;10.10;6.50;;;5.30;99.90;;;;;;5010976;28;20210;-76
2020/12/20 05:03:26;;;;;;;7.85;5.68;;;5.30;99.90;;;;;;5071146;23;20242;-72
2020/12/20 05:05:53;;;;;;;8.63;5.80;;;5.40;99.90;;;;;;5010440;28;20209;-72
2020/12/20 05:08:21;;;;;;;6.65;6.05;;;5.40;99.90;;;;;;5011027;28;20210;-72
2020/12/20 05:10:47;;;;;;;6.50;5.65;;;5.40;99.90;;;;;;5010541;28;20226;-71
2020/12/20 05:13:14;;;;;;;7.05;5.75;;;5.40;99.90;;;;;;5010754;28;20288;-72
2020/12/20 05:15:41;;;;;;;7.30;6.18;;;5.50;99.90;;;;;;5010858;28;20209;-72
2020/12/20 05:18:08;;;;;;;8.05;6.88;;;5.40;99.90;;;;;;5011316;28;20265;-72
2020/12/20 05:20:37;;;;;;;7.50;6.45;;;5.40;99.90;;;;;;5010282;28;20209;-71
2020/12/20 05:23:04;;;;;;;7.30;6.60;;;5.30;99.90;;;;;;5010437;28;20709;-72
2020/12/20 05:25:31;;;;;;;6.55;5.85;;;5.30;99.90;;;;;;5010375;28;20206;-72
2020/12/20 05:28:12;;;;;;;6.85;6.15;;;5.30;99.90;;;;;;5010073;28;20218;-72
2020/12/20 05:30:40;;;;;;;6.95;6.35;;;5.30;99.90;;;;;;5010206;28;20233;-72
2020/12/20 05:33:07;;;;;;;10.18;5.80;;;5.30;99.90;;;;;;5010059;28;20230;-72
2020/12/20 05:35:34;;;;;;;5.80;5.30;;;5.40;99.90;;;;;;5009362;28;20228;-72
2020/12/20 05:38:01;;;;;;;7.25;6.43;;;5.30;99.90;;;;;;5010070;28;20233;-72
2020/12/20 05:40:30;;;;;;;7.22;6.25;;;5.30;99.90;;;;;;5010119;28;20207;-72
2020/12/20 05:42:59;;;;;;;6.78;5.78;;;5.30;99.90;;;;;;5009502;28;20223;-72
2020/12/20 05:45:27;;;;;;;7.85;6.63;;;5.30;99.90;;;;;;5010511;28;20214;-75
2020/12/20 05:47:54;;;;;;;6.50;5.90;;;5.30;99.90;;;;;;5009348;28;20206;-72
2020/12/20 05:50:20;;;;;;;6.85;5.80;;;5.30;99.90;;;;;;5009981;28;20223;-72
2020/12/20 05:53:01;;;;;;;7.95;6.65;;;5.30;99.90;;;;;;5009291;28;20226;-72
2020/12/20 05:55:40;;;;;;;8.13;6.57;;;5.30;99.90;;;;;;5009349;28;20236;-72
2020/12/20 05:58:11;;;;;;;6.80;6.13;;;5.40;99.90;;;;;;5009995;28;20202;-72
2020/12/20 06:00:37;;;;;;;6.50;5.90;;;5.30;99.90;;;;;;5009369;28;20210;-72
2020/12/20 06:03:05;;;;;;;7.28;5.90;;;5.30;99.90;;;;;;5009267;28;20246;-72
2020/12/20 06:05:34;;;;;;;6.93;6.20;;;5.30;99.90;;;;;;5010021;28;20363;-72
2020/12/20 06:08:05;;;;;;;7.28;6.03;;;5.30;99.90;;;;;;5009930;28;20202;-72
2020/12/20 06:10:35;;;;;;;7.90;6.43;;;5.30;99.90;;;;;;5009287;28;20576;-72
2020/12/20 06:13:04;;;;;;;8.00;5.75;;;5.30;99.90;;;;;;5009135;28;20229;-72
2020/12/20 06:15:33;;;;;;;6.28;5.68;;;5.20;99.90;;;;;;5009762;28;20206;-72
2020/12/20 06:18:04;;;;;;;6.53;5.57;;;5.10;99.90;;;;;;5009415;28;20210;-73
2020/12/20 06:20:32;;;;;;;6.68;5.97;;;5.10;99.90;;;;;;5009822;28;20202;-72
2020/12/20 06:22:58;;;;;;;6.72;6.03;;;5.10;99.90;;;;;;5008786;28;20233;-72
2020/12/20 06:25:27;;;;;;;6.57;5.75;;;5.10;99.90;;;;;;5009323;28;20206;-73
2020/12/20 06:27:53;;;;;;;8.57;6.07;;;5.10;99.90;;;;;;5009233;28;20284;-73
2020/12/20 06:30:21;;;;;;;6.20;5.70;;;5.10;99.90;;;;;;5008235;28;20234;-72
2020/12/20 06:32:52;;;;;;;8.23;7.43;;;5.00;99.90;;;;;;5008578;28;20233;-72
2020/12/20 06:35:22;;;;;;;7.10;6.40;;;5.00;99.90;;;;;;5009378;28;20256;-72
2020/12/20 06:37:49;;;;;;;7.40;6.03;;;5.00;99.90;;;;;;5008861;28;20202;-73
2020/12/20 06:40:39;;;;;;;6.22;5.72;;;5.00;99.90;;;;;;5008927;28;20217;-72
2020/12/20 06:43:06;;;;;;;7.38;6.18;;;5.00;99.90;;;;;;5008965;28;20253;-72
2020/12/20 06:45:40;;;;;;;7.53;5.80;;;5.10;99.90;;;;;;5009175;28;20575;-72
2020/12/20 06:48:09;;;;;;;6.07;5.47;;;5.10;99.90;;;;;;5009456;28;20685;-74
2020/12/20 06:50:46;;;;;;;8.35;5.70;;;5.10;99.90;;;;;;5009588;28;20226;-73
2020/12/20 06:53:14;;;;;;;7.75;6.20;;;5.10;99.90;;;;;;5008602;28;20229;-73
2020/12/20 06:55:41;;;;;;;5.35;4.80;;;5.00;99.90;;;;;;5008730;28;20214;-73
2020/12/20 06:58:09;;;;;;;6.50;5.85;;;5.00;99.90;;;;;;5008824;28;20248;-73
2020/12/20 07:00:39;;;;;;;7.43;5.40;;;5.10;99.90;;;;;;5008180;28;20206;-73
2020/12/20 07:03:05;;;;;;;8.05;5.85;;;5.10;99.90;;;;;;5008210;28;20292;-73
2020/12/20 07:05:40;;;;;;;6.80;5.90;;;5.10;99.90;;;;;;5008894;28;20205;-73
2020/12/20 07:08:11;;;;;;;6.18;5.50;;;5.10;99.90;;;;;;5006554;28;20264;-73
2020/12/20 07:10:43;;;;;;;6.72;5.78;;;5.10;99.90;;;;;;5008463;28;20709;-73
2020/12/20 07:13:11;;;;;;;6.38;5.68;;;5.10;99.90;;;;;;5008178;28;20237;-73
2020/12/20 07:15:45;;;;;;;6.00;5.40;;;5.10;99.90;;;;;;5009033;28;20209;-74
2020/12/20 07:18:39;;;;;;;7.57;6.03;;;5.10;99.90;;;;;;5009331;28;20673;-74
2020/12/20 07:21:06;;;;;;;6.90;5.75;;;5.00;99.90;;;;;;5009480;28;20199;-74
2020/12/20 07:23:32;;;;;;;9.52;5.93;;;5.00;99.90;;;;;;5008548;28;20313;-74
2020/12/20 07:26:00;;;;;;;7.55;6.40;;;5.00;99.90;;;;;;5008925;28;20222;-74
2020/12/20 07:28:26;;;;;;;7.80;5.65;;;5.00;99.90;;;;;;5008740;28;20912;-73
2020/12/20 07:30:52;;;;;;;8.50;6.00;;;5.00;99.90;;;;;;5008584;28;20604;-73
2020/12/20 07:33:19;;;;;;;8.70;6.55;;;5.00;99.90;;;;;;5008629;28;20226;-73
2020/12/20 07:35:46;;;;;;;7.78;6.30;;;5.10;99.90;;;;;;5008795;28;20199;-73
2020/12/20 07:38:12;;;;;;;7.82;5.43;;;5.00;99.90;;;;;;5008334;28;20206;-73
2020/12/20 07:40:39;;;;;;;6.20;5.30;;;5.10;99.90;;;;;;5008348;28;20195;-73
2020/12/20 07:43:06;;;;;;;6.50;5.47;;;5.10;99.90;;;;;;5008580;28;20227;-73
2020/12/20 07:45:33;;;;;;;8.82;6.18;;;5.10;99.90;;;;;;5008585;28;20202;-73
2020/12/20 07:48:00;;;;;;;7.38;5.97;;;5.10;99.90;;;;;;5008884;28;20670;-73
2020/12/20 07:50:27;;;;;;;7.20;6.50;;;5.20;99.90;;;;;;5008481;28;20222;-73
2020/12/20 07:52:53;;;;;;;10.20;6.32;;;5.20;99.90;;;;;;5008131;28;20733;-73
2020/12/20 07:55:19;;;;;;;6.57;5.85;;;5.30;99.90;;;;;;5008899;28;20199;-73
2020/12/20 07:57:47;;;;;;;7.05;5.75;;;5.30;99.90;;;;;;5008292;28;20207;-73
2020/12/20 08:00:15;;;;;;;7.15;6.45;;;5.30;99.90;;;;;;5006329;28;20194;-73
2020/12/20 08:02:41;;;;;;;6.80;5.88;;;5.40;99.90;;;;;;5004323;28;20226;-73
2020/12/20 08:05:09;;;;;;;7.22;5.55;;;5.50;99.90;;;;;;5009081;28;20206;-74
2020/12/20 08:07:35;;;;;;;9.38;5.80;;;5.60;99.90;;;;;;5008331;28;20252;-74
2020/12/20 08:10:02;;;;;;;6.10;5.50;;;5.70;99.90;;;;;;5007015;28;20883;-73
2020/12/20 08:12:28;;;;;;;7.93;6.97;;;5.90;99.90;;;;;;5008292;28;20230;-72
2020/12/20 08:15:03;;;;;;;6.88;6.18;;;6.10;99.90;;;;;;5006563;28;20202;-72
2020/12/20 08:17:30;;;;;;;7.07;6.18;;;6.20;99.90;;;;;;5008513;28;20198;-72
2020/12/20 08:19:56;;;;;;;9.23;6.68;;;6.30;99.90;;;;;;5011008;28;20253;-72
2020/12/20 08:22:28;;;;;;;6.93;6.03;;;6.40;99.90;;;;;;5011763;28;20223;-72
2020/12/20 08:24:55;;;;;;;6.70;6.03;;;6.50;99.90;;;;;;5011808;28;20211;-72
2020/12/20 08:27:24;;;;;;;7.95;6.10;;;6.60;99.90;;;;;;5012857;28;20202;-72
2020/12/20 08:29:52;;;;;;;6.30;5.32;;;6.70;99.90;;;;;;5009690;28;21066;-74
2020/12/20 08:32:20;;;;;;;6.72;5.70;;;6.70;99.90;;;;;;5007202;28;20209;-73
2020/12/20 08:34:48;;;;;;;7.78;6.05;;;6.80;99.90;;;;;;5009816;28;20214;-73
2020/12/20 08:37:15;;;;;;;7.00;6.30;;;6.80;99.90;;;;;;5009717;28;20694;-73
2020/12/20 08:39:42;;;;;;;7.05;5.75;;;6.80;99.90;;;;;;5008745;28;20206;-72
2020/12/20 08:42:11;;;;;;;9.30;7.25;;;6.80;99.90;;;;;;5009364;28;20213;-73
2020/12/20 08:44:39;;;;;;;8.75;7.28;;;6.80;99.90;;;;;;5008890;28;20596;-72
2020/12/20 08:47:11;;;;;;;6.95;6.03;;;6.80;99.90;;;;;;5010043;28;20218;-73
2020/12/20 08:49:37;;;;;;;9.70;7.13;;;6.90;99.90;;;;;;5008327;28;20735;-73
2020/12/20 08:52:12;;;;;;;7.38;6.57;;;6.90;99.90;;;;;;5008710;28;20209;-73
2020/12/20 08:54:39;;;;;;;7.32;6.13;;;6.90;99.90;;;;;;4989819;28;20207;-73
2020/12/20 08:57:10;;;;;;;8.35;6.80;;;6.90;99.90;;;;;;4990182;28;20203;-73
2020/12/20 08:59:41;;;;;;;8.77;7.40;;;7.00;99.90;;;;;;5005256;28;20391;-72
2020/12/20 09:02:12;;;;;;;8.40;7.45;;;7.00;99.90;;;;;;5009386;28;20206;-72
2020/12/20 09:04:38;;;;;;;8.27;6.55;;;7.10;99.90;;;;;;5009377;28;20210;-73
2020/12/20 09:07:10;;;;;;;8.85;7.82;;;7.30;99.90;;;;;;5009422;28;20233;-73
2020/12/20 09:09:36;;;;;;;11.05;8.45;;;7.40;99.90;;;;;;5009249;28;20202;-73
2020/12/20 09:12:15;;;;;;;12.00;8.50;;;7.60;99.90;;;;;;5009071;28;20599;-73
2020/12/20 09:14:42;;;;;;;11.73;9.13;;;7.70;99.90;;;;;;5008786;28;20739;-73
2020/12/20 09:17:08;;;;;;;10.45;7.68;;;7.90;99.90;;;;;;5005865;28;20206;-72
2020/12/20 09:19:37;;;;;;;8.38;7.43;;;8.00;99.90;;;;;;5009207;28;20203;-72
2020/12/20 09:22:04;;;;;;;7.65;6.85;;;8.30;99.90;;;;;;5009519;28;20202;-73
2020/12/20 09:24:31;;;;;;;7.80;7.00;;;8.70;99.90;;;;;;5009055;28;20670;-73
2020/12/20 09:26:59;;;;;;;8.20;6.68;;;9.40;99.90;;;;;;5009031;28;20209;-73
2020/12/20 09:29:26;;;;;;;7.18;6.45;;;10.90;99.90;;;;;;5009389;28;20213;-73
2020/12/20 09:31:53;;;;;;;8.75;6.55;;;12.10;99.90;;;;;;5007514;28;20995;-73
2020/12/20 09:34:21;;;;;;;6.95;6.20;;;13.10;99.90;;;;;;4991324;28;20223;-73
2020/12/20 09:36:49;;;;;;;9.27;6.50;;;14.00;99.90;;;;;;4989624;28;20211;-73
2020/12/20 09:39:16;;;;;;;8.35;6.60;;;14.70;99.90;;;;;;4992066;28;20619;-73
2020/12/20 09:41:43;;;;;;;8.27;7.17;;;15.30;99.90;;;;;;5008272;28;20199;-73
2020/12/20 09:44:16;;;;;;;7.13;6.43;;;15.40;99.90;;;;;;5009359;28;20560;-73
2020/12/20 09:46:43;;;;;;;9.00;6.60;;;14.70;99.90;;;;;;5008889;28;20884;-72
2020/12/20 09:49:09;;;;;;;8.20;6.45;;;14.10;99.90;;;;;;5008922;28;20548;-72
2020/12/20 09:51:35;;;;;;;9.27;8.17;;;13.30;99.90;;;;;;5008155;28;20627;-72
2020/12/20 09:54:02;;;;;;;8.48;7.57;;;12.80;99.90;;;;;;5008537;28;20489;-72
2020/12/20 09:56:28;;;;;;;7.57;6.68;;;12.30;99.90;;;;;;5008885;28;20206;-72
2020/12/20 09:58:57;;;;;;;8.25;6.90;;;11.70;99.90;;;;;;5008218;28;20674;-72
2020/12/20 10:01:25;;;;;;;8.32;6.32;;;11.20;99.90;;;;;;5011403;28;20980;-72
2020/12/20 10:03:52;;;;;;;7.90;6.55;;;10.70;99.90;;;;;;5027892;28;20226;-72
2020/12/20 10:06:19;;;;;;;7.85;6.75;;;10.40;99.90;;;;;;5021291;28;20209;-72
2020/12/20 10:08:47;;;;;;;12.32;9.80;;;9.90;99.90;;;;;;5008055;28;20260;-72
2020/12/20 10:11:17;;;;;;;12.13;10.15;;;9.70;99.90;;;;;;5008196;28;20218;-72
2020/12/20 10:13:43;;;;;;;10.82;7.55;;;9.50;99.90;;;;;;5007118;28;20931;-73
2020/12/20 10:16:11;;;;;;;8.15;7.35;;;9.40;99.90;;;;;;5007973;28;20260;-72
2020/12/20 10:18:37;;;;;;;8.18;7.20;;;9.30;99.90;;;;;;5007682;28;20297;-72
2020/12/20 10:21:03;;;;;;;9.10;8.30;;;9.30;99.90;;;;;;5007500;28;20256;-72
2020/12/20 10:23:30;;;;;;;8.10;7.30;;;9.20;99.90;;;;;;5006949;28;20256;-72
2020/12/20 10:25:56;;;;;;;8.27;7.40;;;9.10;99.90;;;;;;5007503;28;20198;-73
2020/12/20 10:28:22;;;;;;;7.78;6.70;;;9.00;99.90;;;;;;5008436;28;20205;-72
2020/12/20 10:30:48;;;;;;;8.15;7.28;;;9.00;99.90;;;;;;5007126;28;20233;-72
2020/12/20 10:33:15;;;;;;;7.50;6.72;;;8.90;99.90;;;;;;5006975;28;20262;-73
2020/12/20 10:35:42;;;;;;;7.32;6.63;;;8.90;99.90;;;;;;5008225;28;20213;-72
2020/12/20 10:38:08;;;;;;;10.32;7.53;;;8.80;99.90;;;;;;5008817;28;20622;-73
2020/12/20 10:40:34;;;;;;;9.25;7.40;;;8.80;99.90;;;;;;5006898;28;20257;-73
2020/12/20 10:43:00;;;;;;;9.13;7.60;;;8.80;99.90;;;;;;5006996;28;20230;-73
2020/12/20 10:45:30;;;;;;;9.05;7.50;;;8.80;99.90;;;;;;5008116;28;20225;-73
2020/12/20 10:47:56;;;;;;;8.63;7.18;;;8.90;99.90;;;;;;5008184;28;20206;-73
2020/12/20 10:50:24;;;;;;;8.90;7.35;;;8.90;99.90;;;;;;5008270;28;20264;-73
2020/12/20 10:52:52;;;;;;;7.95;7.15;;;8.90;99.90;;;;;;5009235;28;20230;-72
2020/12/20 10:55:18;;;;;;;9.27;7.63;;;8.90;99.90;;;;;;5008753;28;20213;-73
2020/12/20 10:57:45;;;;;;;9.18;7.20;;;9.10;99.90;;;;;;4990366;28;20199;-73
2020/12/20 11:00:12;;;;;;;9.32;8.15;;;9.10;99.90;;;;;;4988670;28;20207;-73
2020/12/20 11:02:38;;;;;;;9.10;8.15;;;9.30;99.90;;;;;;4997887;28;20666;-73
2020/12/20 11:05:05;;;;;;;9.02;7.22;;;9.40;99.90;;;;;;5008089;28;20206;-74
2020/12/20 11:07:32;;;;;;;9.30;8.40;;;9.60;99.90;;;;;;5006844;28;20253;-72
2020/12/20 11:10:00;;;;;;;8.57;7.78;;;10.10;99.90;;;;;;5007931;28;20198;-73
2020/12/20 11:12:27;;;;;;;10.55;7.20;;;10.50;99.90;;;;;;4988167;28;20242;-72
2020/12/20 11:14:54;;;;;;;9.27;7.00;;;10.90;99.90;;;;;;4987965;28;20211;-72
2020/12/20 11:17:20;;;;;;;8.70;7.80;;;11.30;99.90;;;;;;4988085;28;20219;-72
2020/12/20 11:19:47;;;;;;;10.57;8.02;;;11.60;99.90;;;;;;4987650;28;20214;-72
2020/12/20 11:22:13;;;;;;;8.10;7.30;;;12.10;99.90;;;;;;4987251;28;20291;-72
2020/12/20 11:24:40;;;;;;;9.85;7.40;;;12.30;99.90;;;;;;4987945;28;20203;-72
2020/12/20 11:27:09;;;;;;;6.40;5.80;;;12.40;99.90;;;;;;4988128;28;20261;-73
2020/12/20 11:29:39;;;;;;;6.25;5.30;;;12.30;99.90;;;;;;4992720;28;20634;-73
2020/12/20 11:32:05;;;;;;;5.20;4.70;;;12.20;99.90;;;;;;5006639;28;20195;-72
2020/12/20 11:34:32;;;;;;;4.18;3.88;;;12.00;99.90;;;;;;5007070;28;20203;-72
2020/12/20 11:36:58;;;;;;;4.80;3.55;;;11.90;99.90;;;;;;5007224;28;20226;-72
2020/12/20 11:39:25;;;;;;;3.55;3.22;;;11.70;99.90;;;;;;5006945;28;20207;-72
2020/12/20 11:41:52;;;;;;;6.47;5.10;;;11.70;99.90;;;;;;5008794;28;20218;-73
2020/12/20 11:44:21;;;;;;;4.38;3.42;;;11.90;99.90;;;;;;5007634;28;20218;-73
2020/12/20 11:46:47;;;;;;;4.47;3.92;;;12.10;99.90;;;;;;5005817;28;20219;-73
2020/12/20 11:49:13;;;;;;;5.47;4.43;;;12.20;99.90;;;;;;4989584;28;20207;-73
2020/12/20 11:51:39;;;;;;;4.00;3.22;;;12.30;99.90;;;;;;5006171;28;20202;-73
2020/12/20 11:54:06;;;;;;;5.38;3.55;;;12.40;99.90;;;;;;5008527;28;20222;-72
2020/12/20 11:56:32;;;;;;;3.33;2.90;;;12.50;99.90;;;;;;5009305;28;20202;-73
2020/12/20 11:58:59;;;;;;;4.68;3.80;;;12.60;99.90;;;;;;5008950;28;20603;-73
2020/12/20 12:01:27;;;;;;;3.50;3.20;;;12.60;99.90;;;;;;4994825;28;20295;-73
2020/12/20 12:03:53;;;;;;;5.05;3.30;;;12.60;99.90;;;;;;5010490;28;20940;-73
2020/12/20 12:06:20;;;;;;;3.60;3.30;;;12.60;99.90;;;;;;5010882;28;20207;-73
2020/12/20 12:08:46;;;;;;;4.30;3.20;;;12.60;99.90;;;;;;5010063;28;20230;-73
2020/12/20 12:11:22;;;;;;;8.73;3.40;;;12.80;99.90;;;;;;5008917;28;20197;-73
2020/12/20 12:13:49;;;;;;;3.60;3.30;;;12.70;99.90;;;;;;5009989;28;20234;-73
2020/12/20 12:16:17;;;;;;;4.00;3.05;;;12.60;99.90;;;;;;5010192;28;20633;-73
2020/12/20 12:18:43;;;;;;;4.90;3.30;;;12.60;99.90;;;;;;5010364;28;20210;-72
2020/12/20 12:21:15;;;;;;;3.60;3.30;;;12.40;99.90;;;;;;5010297;28;20710;-73
2020/12/20 12:23:42;;;;;;;6.13;3.30;;;12.30;99.90;;;;;;5009078;28;20254;-72
2020/12/20 12:26:08;;;;;;;4.45;3.25;;;12.10;99.90;;;;;;5010513;28;20213;-73
2020/12/20 12:28:34;;;;;;;3.55;3.25;;;12.00;99.90;;;;;;5009811;28;20199;-73
2020/12/20 12:31:00;;;;;;;4.47;3.38;;;12.00;99.90;;;;;;5009263;28;20206;-73
2020/12/20 12:33:27;;;;;;;5.30;3.78;;;11.90;99.90;;;;;;5009912;28;20564;-73
2020/12/20 12:35:54;;;;;;;5.68;5.05;;;11.80;99.90;;;;;;5009263;28;20199;-73
2020/12/20 12:38:21;;;;;;;6.18;5.25;;;11.80;99.90;;;;;;5010687;28;20210;-73
2020/12/20 12:40:47;;;;;;;5.57;4.90;;;11.70;99.90;;;;;;5006919;28;20222;-73
2020/12/20 12:43:13;;;;;;;6.97;5.60;;;11.60;99.90;;;;;;4990365;28;20223;-73
2020/12/20 12:45:39;;;;;;;6.90;5.38;;;11.50;99.90;;;;;;4989736;28;20233;-72
2020/12/20 12:48:07;;;;;;;8.80;5.80;;;11.50;99.90;;;;;;4990080;28;20207;-72
2020/12/20 12:50:34;;;;;;;6.18;5.20;;;11.50;99.90;;;;;;5002005;28;20194;-73
2020/12/20 12:53:00;;;;;;;7.60;6.15;;;11.40;99.90;;;;;;5007614;28;20230;-73
2020/12/20 12:55:28;;;;;;;8.25;7.15;;;11.40;99.90;;;;;;5004633;28;20206;-73